createdAt,value
2023-07-30T00:00:55.590Z,11.23
2023-07-30T00:03:23.801Z,7.18
2023-07-30T00:05:55.429Z,8.07
2023-07-30T00:08:23.454Z,9.85
2023-07-30T00:10:52.649Z,7.68
2023-07-30T00:13:20.400Z,10.23
2023-07-30T00:15:49.183Z,11.45
2023-07-30T00:18:17.261Z,7.25
2023-07-30T00:20:45.493Z,9.90
2023-07-30T00:23:13.544Z,7.75
2023-07-30T00:25:41.300Z,9.63
2023-07-30T00:28:10.410Z,12.48
2023-07-30T00:30:38.540Z,10.45
2023-07-30T00:33:06.304Z,10.38
2023-07-30T00:35:34.079Z,11.15
2023-07-30T00:38:02.152Z,11.15
2023-07-30T00:40:29.997Z,11.85
2023-07-30T00:42:57.795Z,9.93
2023-07-30T00:45:27.250Z,9.90
2023-07-30T00:47:55.176Z,11.65
2023-07-30T00:50:22.977Z,7.95
2023-07-30T00:52:51.040Z,10.27
2023-07-30T00:55:19.375Z,13.10
2023-07-30T00:57:47.870Z,8.05
2023-07-30T01:00:16.171Z,11.88
2023-07-30T01:02:45.765Z,14.27
2023-07-30T01:05:13.587Z,9.02
2023-07-30T01:07:41.661Z,12.20
2023-07-30T01:10:10.062Z,10.90
2023-07-30T01:12:39.215Z,11.13
2023-07-30T01:15:09.409Z,12.60
2023-07-30T01:17:38.032Z,9.80
2023-07-30T01:20:08.539Z,11.50
2023-07-30T01:22:37.904Z,9.02
2023-07-30T01:25:06.459Z,12.70
2023-07-30T01:27:40.835Z,11.27
2023-07-30T01:30:15.472Z,13.32
2023-07-30T01:32:44.078Z,8.63
2023-07-30T01:35:13.652Z,14.23
2023-07-30T01:40:12.778Z,9.70
2023-07-30T01:42:40.787Z,8.82
2023-07-30T01:45:09.270Z,8.25
2023-07-30T01:47:37.072Z,9.93
2023-07-30T01:50:05.637Z,10.77
2023-07-30T01:52:33.369Z,11.98
2023-07-30T01:55:02.784Z,15.57
2023-07-30T01:57:30.834Z,10.60
2023-07-30T01:59:58.597Z,12.48
2023-07-30T02:02:26.452Z,9.65
2023-07-30T02:04:54.588Z,8.93
2023-07-30T02:07:22.358Z,11.93
2023-07-30T02:09:50.118Z,10.82
2023-07-30T02:12:19.687Z,11.27
2023-07-30T02:17:15.599Z,8.77
2023-07-30T02:19:44.556Z,11.48
2023-07-30T02:22:12.287Z,16.55
2023-07-30T02:24:40.054Z,12.40
2023-07-30T02:27:08.182Z,12.70
2023-07-30T02:29:37.303Z,12.15
2023-07-30T02:32:05.911Z,10.18
2023-07-30T02:34:33.648Z,12.47
2023-07-30T02:37:01.458Z,11.05
2023-07-30T02:39:29.424Z,11.35
2023-07-30T02:41:57.214Z,10.10
2023-07-30T02:44:25.013Z,12.30
2023-07-30T02:46:54.276Z,10.65
2023-07-30T02:49:22.013Z,19.88
2023-07-30T02:51:51.161Z,12.25
2023-07-30T02:54:22.093Z,10.10
2023-07-30T02:56:49.877Z,13.20
2023-07-30T02:59:17.625Z,13.13
2023-07-30T03:01:46.109Z,15.10
2023-07-30T03:04:15.253Z,10.00
2023-07-30T03:06:42.988Z,11.75
2023-07-30T03:09:11.024Z,12.02
2023-07-30T03:11:39.000Z,15.88
2023-07-30T03:14:07.045Z,14.80
2023-07-30T03:16:35.113Z,11.60
2023-07-30T03:19:02.891Z,13.13
2023-07-30T03:21:32.044Z,12.00
2023-07-30T03:24:00.024Z,12.10
2023-07-30T03:26:27.780Z,11.20
2023-07-30T03:28:55.509Z,14.18
2023-07-30T03:31:23.457Z,10.27
2023-07-30T03:33:51.450Z,12.50
2023-07-30T03:36:19.183Z,13.77
2023-07-30T03:38:48.519Z,12.95
2023-07-30T03:41:16.256Z,12.63
2023-07-30T03:43:44.002Z,13.35
2023-07-30T03:46:12.076Z,9.77
2023-07-30T03:48:40.425Z,16.52
2023-07-30T03:51:09.364Z,14.27
2023-07-30T03:53:37.483Z,10.80
2023-07-30T03:56:06.765Z,8.43
2023-07-30T03:58:34.497Z,11.65
2023-07-30T04:01:02.571Z,12.40
2023-07-30T04:03:30.513Z,13.73
2023-07-30T04:05:58.323Z,10.93
2023-07-30T04:08:26.153Z,13.23
2023-07-30T04:10:53.895Z,18.15
2023-07-30T04:13:23.194Z,10.38
2023-07-30T04:15:50.997Z,14.15
2023-07-30T04:18:18.733Z,17.13
2023-07-30T04:20:46.488Z,17.20
2023-07-30T04:23:14.510Z,13.98
2023-07-30T04:25:42.415Z,12.93
2023-07-30T04:28:10.192Z,9.45
2023-07-30T04:30:39.578Z,12.13
2023-07-30T04:33:07.418Z,13.00
2023-07-30T04:35:35.193Z,14.32
2023-07-30T04:38:03.161Z,15.45
2023-07-30T04:40:31.558Z,16.65
2023-07-30T04:42:59.284Z,13.65
2023-07-30T04:45:27.334Z,12.90
2023-07-30T04:47:56.520Z,19.35
2023-07-30T04:50:24.474Z,17.08
2023-07-30T04:52:52.587Z,12.43
2023-07-30T04:55:20.418Z,12.18
2023-07-30T04:57:48.422Z,11.60
2023-07-30T05:00:16.383Z,14.88
2023-07-30T05:02:44.185Z,17.42
2023-07-30T05:05:13.806Z,15.48
2023-07-30T05:10:11.955Z,15.23
2023-07-30T05:12:40.059Z,15.25
2023-07-30T05:15:08.933Z,15.75
2023-07-30T05:17:36.871Z,13.75
2023-07-30T05:20:05.271Z,9.30
2023-07-30T05:22:34.622Z,19.45
2023-07-30T05:25:02.355Z,15.93
2023-07-30T05:27:32.426Z,14.55
2023-07-30T05:30:00.438Z,15.95
2023-07-30T05:32:28.365Z,15.02
2023-07-30T05:34:56.133Z,12.75
2023-07-30T05:37:24.552Z,16.10
2023-07-30T05:39:53.674Z,11.32
2023-07-30T05:42:21.424Z,15.20
2023-07-30T05:44:49.514Z,14.35
2023-07-30T05:47:17.273Z,15.32
2023-07-30T05:49:45.065Z,17.50
2023-07-30T05:52:13.150Z,12.70
2023-07-30T05:54:40.955Z,12.63
2023-07-30T05:57:10.112Z,15.55
2023-07-30T05:59:38.109Z,15.30
2023-07-30T06:02:06.421Z,9.55
2023-07-30T06:04:34.199Z,12.57
2023-07-30T06:07:02.620Z,15.93
2023-07-30T06:09:30.816Z,12.40
2023-07-30T06:11:59.632Z,14.98
2023-07-30T06:14:29.211Z,12.13
2023-07-30T06:19:25.054Z,13.18
2023-07-30T06:21:53.542Z,13.60
2023-07-30T06:24:21.318Z,12.65
2023-07-30T06:26:49.359Z,15.73
2023-07-30T06:29:17.360Z,14.00
2023-07-30T06:31:46.812Z,18.45
2023-07-30T06:36:42.823Z,16.88
2023-07-30T06:39:10.599Z,25.83
2023-07-30T06:41:38.959Z,14.32
2023-07-30T06:44:06.950Z,16.45
2023-07-30T06:46:35.163Z,13.65
2023-07-30T06:49:04.368Z,14.27
2023-07-30T06:51:32.327Z,16.63
2023-07-30T06:54:00.403Z,12.23
2023-07-30T06:56:28.160Z,20.60
2023-07-30T06:58:57.538Z,19.77
2023-07-30T07:01:25.398Z,13.15
2023-07-30T07:03:53.814Z,14.60
2023-07-30T07:06:22.984Z,14.85
2023-07-30T07:08:50.747Z,13.38
2023-07-30T07:11:19.019Z,9.70
2023-07-30T07:13:46.833Z,16.13
2023-07-30T07:16:15.005Z,14.30
2023-07-30T07:18:43.354Z,14.45
2023-07-30T07:21:11.416Z,12.40
2023-07-30T07:23:40.525Z,13.23
2023-07-30T07:26:08.748Z,12.20
2023-07-30T07:28:37.029Z,12.35
2023-07-30T07:31:04.907Z,13.32
2023-07-30T07:33:33.346Z,12.25
2023-07-30T07:36:07.656Z,14.57
2023-07-30T07:38:36.704Z,16.85
2023-07-30T07:41:05.912Z,11.60
2023-07-30T07:43:33.656Z,14.73
2023-07-30T07:46:01.997Z,12.88
2023-07-30T07:48:29.726Z,12.25
2023-07-30T07:50:57.502Z,10.88
2023-07-30T07:53:25.852Z,13.15
2023-07-30T07:55:53.601Z,13.20
2023-07-30T07:58:22.705Z,14.43
2023-07-30T08:00:50.784Z,13.35
2023-07-30T08:03:18.527Z,17.30
2023-07-30T08:05:47.208Z,12.05
2023-07-30T08:08:14.967Z,11.48
2023-07-30T08:10:44.757Z,12.73
2023-07-30T08:13:12.935Z,11.95
2023-07-30T08:15:43.070Z,13.68
2023-07-30T08:18:11.093Z,10.82
2023-07-30T08:20:38.920Z,9.23
2023-07-30T08:23:07.301Z,11.93
2023-07-30T08:25:35.109Z,12.48
2023-07-30T08:28:02.930Z,8.93
2023-07-30T08:30:31.333Z,10.32
2023-07-30T08:33:00.567Z,12.65
2023-07-30T08:35:29.098Z,11.93
2023-07-30T08:37:57.594Z,13.82
2023-07-30T08:40:26.002Z,14.85
2023-07-30T08:42:54.699Z,17.50
2023-07-30T08:45:23.671Z,9.90
2023-07-30T08:47:51.504Z,10.13
2023-07-30T08:50:20.859Z,12.30
2023-07-30T08:52:50.887Z,12.02
2023-07-30T08:55:20.269Z,10.50
2023-07-30T08:57:48.380Z,8.00
2023-07-30T09:00:19.736Z,10.40
2023-07-30T09:02:57.002Z,12.38
2023-07-30T09:05:26.865Z,13.88
2023-07-30T09:07:55.313Z,10.15
2023-07-30T09:10:23.257Z,10.25
2023-07-30T09:12:56.321Z,7.40
2023-07-30T09:15:33.390Z,8.23
2023-07-30T09:18:02.476Z,10.48
2023-07-30T09:20:39.580Z,12.45
2023-07-30T09:23:08.035Z,11.60
2023-07-30T09:25:36.365Z,8.18
2023-07-30T09:28:04.390Z,11.35
2023-07-30T09:30:34.972Z,7.85
2023-07-30T09:33:02.850Z,8.20
2023-07-30T09:35:35.789Z,12.65
2023-07-30T09:38:05.533Z,9.52
2023-07-30T09:40:34.672Z,7.65
2023-07-30T09:43:04.886Z,8.27
2023-07-30T09:45:36.150Z,11.77
2023-07-30T09:48:06.934Z,9.32
2023-07-30T09:50:37.646Z,9.75
2023-07-30T09:53:06.388Z,9.30
2023-07-30T09:55:34.829Z,8.50
2023-07-30T09:58:02.652Z,9.80
2023-07-30T10:00:31.828Z,12.40
2023-07-30T10:03:01.706Z,12.63
2023-07-30T10:05:35.080Z,11.95
2023-07-30T10:08:09.391Z,9.60
2023-07-30T10:10:37.533Z,9.68
2023-07-30T10:13:08.878Z,9.30
2023-07-30T10:15:38.352Z,8.13
2023-07-30T10:20:34.573Z,8.27
2023-07-30T10:23:06.698Z,8.15
2023-07-30T10:25:45.781Z,6.75
2023-07-30T10:28:29.699Z,6.60
2023-07-30T10:30:58.576Z,7.55
2023-07-30T10:33:45.634Z,6.00
2023-07-30T10:36:13.566Z,8.80
2023-07-30T10:38:43.754Z,7.47
2023-07-30T10:41:14.556Z,6.50
2023-07-30T10:43:43.671Z,7.30
2023-07-30T10:46:13.029Z,7.47
2023-07-30T10:51:12.284Z,8.48
2023-07-30T10:53:40.585Z,9.82
2023-07-30T10:56:11.634Z,8.70
2023-07-30T10:58:39.542Z,8.63
2023-07-30T11:01:08.464Z,20.70
2023-07-30T11:03:37.655Z,13.98
2023-07-30T11:06:05.667Z,9.18
2023-07-30T11:08:39.001Z,8.90
2023-07-30T11:11:08.268Z,12.45
2023-07-30T11:13:44.385Z,9.13
2023-07-30T11:16:12.676Z,12.07
2023-07-30T11:18:42.154Z,8.70
2023-07-30T11:23:39.817Z,9.88
2023-07-30T11:28:41.093Z,10.63
2023-07-30T11:31:10.867Z,6.53
2023-07-30T11:33:40.629Z,7.05
2023-07-30T11:36:10.961Z,9.60
2023-07-30T11:38:40.960Z,8.05
2023-07-30T11:41:12.353Z,7.25
2023-07-30T11:43:43.767Z,11.23
2023-07-30T11:46:14.396Z,7.07
2023-07-30T11:48:44.785Z,6.35
2023-07-30T11:51:24.823Z,6.63
2023-07-30T11:53:54.325Z,8.63
2023-07-30T11:56:25.181Z,4.53
2023-07-30T11:58:57.226Z,6.15
2023-07-30T12:01:26.840Z,7.22
2023-07-30T12:03:57.075Z,6.22
2023-07-30T12:06:25.392Z,4.90
2023-07-30T12:08:53.565Z,5.93
2023-07-30T12:11:21.996Z,3.95
2023-07-30T12:13:51.490Z,6.75
2023-07-30T12:16:22.330Z,4.18
2023-07-30T12:18:50.316Z,6.38
2023-07-30T12:21:18.062Z,8.02
2023-07-30T12:23:46.052Z,8.65
2023-07-30T12:26:13.835Z,7.20
2023-07-30T12:28:41.553Z,5.28
2023-07-30T12:31:09.536Z,5.03
2023-07-30T12:33:38.895Z,6.35
2023-07-30T12:38:35.725Z,8.60
2023-07-30T12:41:03.532Z,8.77
2023-07-30T12:43:31.326Z,5.65
2023-07-30T12:45:59.370Z,7.15
2023-07-30T12:48:27.127Z,7.50
2023-07-30T12:50:58.131Z,4.53
2023-07-30T12:53:26.869Z,3.80
2023-07-30T12:55:54.629Z,6.07
2023-07-30T12:58:22.385Z,4.63
2023-07-30T13:00:50.724Z,5.30
2023-07-30T13:03:18.619Z,3.80
2023-07-30T13:05:46.449Z,7.40
2023-07-30T13:08:16.301Z,7.18
2023-07-30T13:10:44.327Z,7.18
2023-07-30T13:13:12.137Z,6.05
2023-07-30T13:15:40.306Z,8.07
2023-07-30T13:18:08.069Z,4.50
2023-07-30T13:20:35.810Z,3.83
2023-07-30T13:23:04.136Z,4.65
2023-07-30T13:25:33.599Z,6.80
2023-07-30T13:28:01.370Z,8.73
2023-07-30T13:30:29.919Z,6.03
2023-07-30T13:32:57.747Z,5.47
2023-07-30T13:35:25.635Z,8.77
2023-07-30T13:37:53.690Z,5.28
2023-07-30T13:40:21.613Z,5.97
2023-07-30T13:42:50.694Z,4.28
2023-07-30T13:45:19.654Z,5.72
2023-07-30T13:47:47.535Z,5.70
2023-07-30T13:50:15.437Z,5.68
2023-07-30T13:52:43.629Z,6.25
2023-07-30T13:55:11.394Z,4.95
2023-07-30T13:57:39.171Z,7.93
2023-07-30T14:00:10.403Z,6.70
2023-07-30T14:02:38.296Z,6.85
2023-07-30T14:05:06.675Z,4.97
2023-07-30T14:07:35.956Z,4.93
2023-07-30T14:10:03.800Z,3.97
2023-07-30T14:12:31.956Z,5.25
2023-07-30T14:14:59.837Z,5.82
2023-07-30T14:17:28.987Z,6.68
2023-07-30T14:19:57.514Z,6.03
2023-07-30T14:22:25.226Z,4.87
2023-07-30T14:24:53.129Z,7.47
2023-07-30T14:27:21.918Z,8.10
2023-07-30T14:29:49.825Z,6.13
2023-07-30T14:32:18.239Z,5.47
2023-07-30T14:34:47.412Z,4.88
2023-07-30T14:37:15.246Z,5.65
2023-07-30T14:39:43.093Z,8.75
2023-07-30T14:42:11.161Z,7.43
2023-07-30T14:44:39.470Z,11.02
2023-07-30T14:47:09.496Z,7.22
2023-07-30T14:49:39.002Z,5.88
2023-07-30T14:57:04.014Z,10.68
2023-07-30T14:59:31.741Z,8.77
2023-07-30T15:01:59.530Z,7.00
2023-07-30T15:04:27.548Z,6.63
2023-07-30T15:06:55.278Z,11.05
2023-07-30T15:09:24.444Z,6.63
2023-07-30T15:11:52.425Z,8.68
2023-07-30T15:14:20.265Z,11.20
2023-07-30T15:16:48.052Z,7.78
2023-07-30T15:19:15.853Z,9.80
2023-07-30T15:21:43.609Z,6.95
2023-07-30T15:24:11.353Z,11.23
2023-07-30T15:26:40.942Z,6.72
2023-07-30T15:29:08.992Z,6.53
2023-07-30T15:31:36.920Z,6.55
2023-07-30T15:34:04.907Z,7.22
2023-07-30T15:36:32.684Z,7.78
2023-07-30T15:39:00.512Z,8.75
2023-07-30T15:41:29.304Z,8.55
2023-07-30T15:43:58.410Z,8.82
2023-07-30T15:46:26.182Z,9.88
2023-07-30T15:48:54.205Z,7.70
2023-07-30T15:51:21.969Z,8.30
2023-07-30T15:53:52.333Z,8.60
2023-07-30T15:56:20.608Z,9.05
2023-07-30T15:58:48.368Z,8.88
2023-07-30T16:01:17.556Z,6.72
2023-07-30T16:03:45.600Z,4.95
2023-07-30T16:06:13.404Z,5.95
2023-07-30T16:08:41.673Z,7.15
2023-07-30T16:11:12.075Z,4.97
2023-07-30T16:13:39.834Z,5.13
2023-07-30T16:16:09.876Z,4.60
2023-07-30T16:18:39.620Z,4.45
2023-07-30T16:21:07.848Z,5.35
2023-07-30T16:23:35.745Z,5.20
2023-07-30T16:26:04.156Z,4.63
2023-07-30T16:28:32.017Z,5.28
2023-07-30T16:31:00.213Z,6.22
2023-07-30T16:33:28.294Z,4.00
2023-07-30T16:35:57.429Z,5.03
2023-07-30T16:38:25.252Z,9.20
2023-07-30T16:40:54.282Z,7.30
2023-07-30T16:43:22.367Z,5.95
2023-07-30T16:45:50.164Z,4.18
2023-07-30T16:48:18.549Z,6.07
2023-07-30T16:50:47.352Z,6.90
2023-07-30T16:53:16.466Z,6.25
2023-07-30T16:55:44.447Z,5.88
2023-07-30T16:58:12.383Z,4.22
2023-07-30T17:00:40.215Z,5.75
2023-07-30T17:03:08.207Z,5.75
2023-07-30T17:05:36.227Z,6.45
2023-07-30T17:08:04.136Z,4.30
2023-07-30T17:10:37.669Z,5.43
2023-07-30T17:13:05.459Z,5.38
2023-07-30T17:15:33.232Z,7.22
2023-07-30T17:18:01.072Z,5.28
2023-07-30T17:20:28.932Z,6.50
2023-07-30T17:22:56.698Z,5.50
2023-07-30T17:25:24.472Z,5.68
2023-07-30T17:27:53.568Z,5.68
2023-07-30T17:30:21.531Z,8.25
2023-07-30T17:32:49.729Z,6.18
2023-07-30T17:35:17.558Z,4.95
2023-07-30T17:37:45.304Z,6.60
2023-07-30T17:40:13.509Z,3.80
2023-07-30T17:42:41.259Z,3.83
2023-07-30T17:45:11.411Z,4.47
2023-07-30T17:47:39.462Z,5.55
2023-07-30T17:50:07.795Z,5.45
2023-07-30T17:52:35.536Z,5.70
2023-07-30T17:55:03.667Z,6.53
2023-07-30T17:57:31.476Z,6.53
2023-07-30T17:59:59.314Z,6.57
2023-07-30T18:02:28.962Z,5.60
2023-07-30T18:04:56.831Z,4.43
2023-07-30T18:07:24.618Z,7.25
2023-07-30T18:09:53.400Z,6.63
2023-07-30T18:12:21.672Z,6.68
2023-07-30T18:14:49.394Z,5.40
2023-07-30T18:17:17.382Z,6.32
2023-07-30T18:19:46.611Z,6.32
2023-07-30T18:22:14.415Z,5.22
2023-07-30T18:24:42.392Z,6.40
2023-07-30T18:27:10.136Z,5.95
2023-07-30T18:29:37.848Z,6.22
2023-07-30T18:32:09.458Z,6.97
2023-07-30T18:34:38.126Z,6.25
2023-07-30T18:37:08.191Z,5.47
2023-07-30T18:39:36.158Z,5.57
2023-07-30T18:42:04.210Z,6.70
2023-07-30T18:44:31.993Z,7.18
2023-07-30T18:47:01.828Z,5.47
2023-07-30T18:49:30.085Z,7.40
2023-07-30T18:51:57.810Z,7.00
2023-07-30T18:54:27.181Z,6.60
2023-07-30T18:56:55.237Z,6.22
2023-07-30T18:59:23.022Z,8.10
2023-07-30T19:01:50.761Z,7.53
2023-07-30T19:04:18.479Z,9.65
2023-07-30T19:06:46.202Z,9.10
2023-07-30T19:09:13.939Z,6.32
2023-07-30T19:11:43.067Z,7.05
2023-07-30T19:14:10.898Z,8.07
2023-07-30T19:16:38.975Z,6.75
2023-07-30T19:19:06.968Z,6.97
2023-07-30T19:21:34.687Z,7.32
2023-07-30T19:24:02.543Z,6.68
2023-07-30T19:26:30.293Z,6.30
2023-07-30T19:28:59.418Z,8.82
2023-07-30T19:31:27.488Z,7.07
2023-07-30T19:33:55.223Z,7.45
2023-07-30T19:36:22.925Z,14.43
2023-07-30T19:38:50.691Z,6.13
2023-07-30T19:41:27.438Z,8.38
2023-07-30T19:43:56.109Z,4.28
2023-07-30T19:46:25.299Z,7.05
2023-07-30T19:51:21.676Z,6.40
2023-07-30T19:53:49.429Z,9.35
2023-07-30T19:56:17.163Z,5.88
2023-07-30T19:58:45.134Z,6.28
2023-07-30T20:01:13.008Z,8.13
2023-07-30T20:03:42.153Z,10.07
2023-07-30T20:06:14.173Z,9.45
2023-07-30T20:08:42.411Z,6.72
2023-07-30T20:11:11.913Z,10.32
2023-07-30T20:16:13.443Z,9.95
2023-07-30T20:18:42.846Z,11.32
2023-07-30T20:21:11.174Z,9.32
2023-07-30T20:23:39.654Z,10.75
2023-07-30T20:26:13.797Z,9.40
2023-07-30T20:28:43.381Z,8.93
2023-07-30T20:31:11.259Z,9.88
2023-07-30T20:33:40.405Z,8.10
2023-07-30T20:36:09.951Z,10.68
2023-07-30T20:41:05.382Z,9.48
2023-07-30T20:43:33.365Z,10.40
2023-07-30T20:46:01.198Z,10.20
2023-07-30T20:48:28.996Z,7.05
2023-07-30T20:50:58.581Z,10.35
2023-07-30T20:55:55.374Z,10.90
2023-07-30T20:58:23.968Z,8.73
2023-07-30T21:00:51.827Z,12.13
2023-07-30T21:03:20.015Z,12.52
2023-07-30T21:05:47.858Z,11.32
2023-07-30T21:08:15.639Z,11.68
2023-07-30T21:10:44.813Z,11.40
2023-07-30T21:13:12.567Z,12.98
2023-07-30T21:15:40.352Z,12.38
2023-07-30T21:18:08.319Z,10.27
2023-07-30T21:20:36.082Z,11.27
2023-07-30T21:23:03.953Z,11.45
2023-07-30T21:25:33.704Z,11.07
2023-07-30T21:28:02.942Z,12.65
2023-07-30T21:30:31.099Z,9.68
2023-07-30T21:32:59.500Z,14.45
2023-07-30T21:35:27.309Z,12.57
2023-07-30T21:37:55.048Z,10.68
2023-07-30T21:40:22.970Z,13.15
2023-07-30T21:42:50.906Z,10.70
2023-07-30T21:45:20.020Z,13.93
2023-07-30T21:47:47.993Z,12.30
2023-07-30T21:50:15.958Z,14.20
2023-07-30T21:52:44.031Z,11.52
2023-07-30T21:55:12.063Z,14.57
2023-07-30T21:57:39.805Z,12.20
2023-07-30T22:00:09.868Z,15.00
2023-07-30T22:02:39.297Z,9.23
2023-07-30T22:07:35.312Z,9.95
2023-07-30T22:10:03.374Z,10.48
2023-07-30T22:12:31.141Z,13.15
2023-07-30T22:14:58.934Z,13.90
2023-07-30T22:17:27.101Z,10.65
2023-07-30T22:19:56.365Z,13.52
2023-07-30T22:22:24.187Z,11.18
2023-07-30T22:24:52.255Z,12.32
2023-07-30T22:27:20.058Z,11.75
2023-07-30T22:29:48.008Z,10.88
2023-07-30T22:32:16.149Z,11.00
2023-07-30T22:34:43.924Z,10.73
2023-07-30T22:37:13.054Z,12.77
2023-07-30T22:39:41.155Z,12.52
2023-07-30T22:42:09.207Z,13.57
2023-07-30T22:44:36.963Z,11.45
2023-07-30T22:47:04.850Z,10.57
2023-07-30T22:49:33.043Z,13.35
2023-07-30T22:52:01.134Z,13.60
2023-07-30T22:54:30.229Z,11.95
2023-07-30T22:56:58.351Z,12.18
2023-07-30T22:59:26.104Z,8.55
2023-07-30T23:01:54.236Z,9.57
2023-07-30T23:04:22.316Z,10.48
2023-07-30T23:06:50.052Z,11.13
2023-07-30T23:09:18.139Z,9.75
2023-07-30T23:11:47.366Z,13.52
2023-07-30T23:14:16.291Z,14.30
2023-07-30T23:16:44.728Z,12.43
2023-07-30T23:19:12.904Z,14.18
2023-07-30T23:21:40.716Z,15.77
2023-07-30T23:24:09.140Z,13.75
2023-07-30T23:26:37.720Z,11.85
2023-07-30T23:29:07.128Z,12.00
2023-07-30T23:31:34.944Z,10.43
2023-07-30T23:34:03.270Z,13.60
2023-07-30T23:36:31.011Z,12.32
2023-07-30T23:38:59.229Z,13.73
2023-07-30T23:41:27.043Z,14.98
2023-07-30T23:43:54.805Z,12.13
2023-07-30T23:46:24.273Z,14.27
2023-07-30T23:48:52.041Z,14.88
2023-07-30T23:51:20.412Z,10.00
2023-07-30T23:53:48.146Z,14.05
2023-07-30T23:56:15.887Z,13.57
2023-07-30T23:58:43.844Z,11.93
